Aviation Digital Data Service (ADDS)

Output produced by METARs form (1409 UTC 19 July 2019)
found at http://aviationweather.gov/metar/data/
 
METAR text: KDKB 191355Z AUTO 23012KT 10SM CLR 28/25 A2983 RMK AO2 T02790249
Conditions at: KDKB (DE KALB , IL, US) observed 1355 UTC 19 July 2019
Temperature: 27.9°C (82°F)
Dewpoint: 24.9°C (77°F) [RH = 84%]
Pressure (altimeter): 29.83 inches Hg (1010.2 mb)
Winds: from the SW (230 degrees) at 14 MPH (12 knots; 6.2 m/s)
Visibility: 10 or more miles (16+ km)
Ceiling: at least 12,000 feet AGL
Clouds: sky clear below 12,000 feet AGL
Weather: automated observation with no human augmentation;
there may or may not be significant weather present at this time